Archival Weather

Chicago O'Hare International

Chicago, Illinois (KORD)

Report from: Thursday, April 14, 2022 12:51 PM CDT
Current time: Monday, June 27, 2022 7:14 AM CDT

Current weather
Weather history
Weather forecast

Temperature8.3°C (46.9°F)
Wind chill3.4°C (38.1°F)
Dew point-6.7°C (19.9°F)
Winds 25 kts (12.9 m/s, 28.8 mph) Southwest (230°)
Wind gusts 40 kts (20.6 m/s, 46 mph)
Peak wind 47 kts (24.2 m/s, 54.1 mph) West-Southwest (240°) at 12:37
Visibility10 mi. (16.1 km)
Clouds Few clouds 6,500 ft. (1,981 m)
Altimeter29.82 in.Hg (1010 mB)
Relative humidity34 %
Density altitude-625 ft. (-190 m)
Sea-level pressure101.0 kPa (1010 mB, 29.83 in.Hg)
Max temp last 6 hours8.3°C (46.9°F)
Min temp last 6 hours2.2°C (36.0°F)
Remarks System requires maintenance
Automated weather observing station with precipitation discriminator
Pressure falling more quickly
Flight conditions Visual Meteorological Conditions
Raw dataKORD 141751Z 23025G40KT 10SM FEW065 08/M07 A2982 RMK AO2 PK WND 24047/1737 SLP100 T00831067 10083 20022 58006 $
An error has occurred. This application may no longer respond until reloaded. Reload 🗙